Time;durP1;ratioP1;P1;durP2;ratioP2;P2;SDS_P1;SDS_P2;PMS_P1;PMS_P2;Temp;Humidity;BMP_temperature;BMP_pressure;BME280_temperature;BME280_humidity;BME280_pressure;Samples;Min_cycle;Max_cycle;Signal;HPM_P1;HPM_P2
2021/04/17 00:01:36;;;;;;;8.70;7.90;;;;;;;;;;4975841;28;20233;-84
2021/04/17 00:04:05;;;;;;;8.87;7.97;;;;;;;;;;4979874;28;20236;-81
2021/04/17 00:06:33;;;;;;;8.33;7.53;;;;;;;;;;4973950;28;20245;-84
2021/04/17 00:09:01;;;;;;;8.70;7.80;;;;;;;;;;4984652;28;20248;-84
2021/04/17 00:11:30;;;;;;;8.90;8.10;;;;;;;;;;4975420;28;20240;-88
2021/04/17 00:13:57;;;;;;;8.83;7.93;;;;;;;;;;4972043;28;20232;-85
2021/04/17 00:16:25;;;;;;;8.90;8.00;;;;;;;;;;4981396;28;20555;-84
2021/04/17 00:18:52;;;;;;;8.90;8.10;;;;;;;;;;4978783;28;20240;-87
2021/04/17 00:21:20;;;;;;;8.53;7.63;;;;;;;;;;4987135;28;20247;-82
2021/04/17 00:23:48;;;;;;;9.80;8.80;;;;;;;;;;4978304;28;20251;-86
2021/04/17 00:26:15;;;;;;;8.37;7.50;;;;;;;;;;4973454;28;20611;-84
2021/04/17 00:28:44;;;;;;;9.73;8.73;;;;;;;;;;4978331;28;20230;-84
2021/04/17 00:31:11;;;;;;;9.00;8.10;;;;;;;;;;4979554;28;20243;-86
2021/04/17 00:33:39;;;;;;;8.63;7.83;;;;;;;;;;4980808;28;20229;-88
2021/04/17 00:36:07;;;;;;;8.87;7.97;;;;;;;;;;4973488;28;20275;-85
2021/04/17 00:38:34;;;;;;;9.50;8.17;;;;;;;;;;4993061;28;20236;-85
2021/04/17 00:41:03;;;;;;;9.73;8.60;;;;;;;;;;4983069;28;20493;-83
2021/04/17 00:43:32;;;;;;;10.90;9.30;;;;;;;;;;4985415;28;20239;-84
2021/04/17 00:46:01;;;;;;;10.07;9.07;;;;;;;;;;4989554;28;20236;-86
2021/04/17 00:48:28;;;;;;;10.47;9.37;;;;;;;;;;4988784;28;20233;-82
2021/04/17 00:50:57;;;;;;;9.70;8.70;;;;;;;;;;4982067;28;20229;-87
2021/04/17 00:53:25;;;;;;;11.03;9.73;;;;;;;;;;4977141;28;20233;-84
2021/04/17 00:55:55;;;;;;;10.50;9.43;;;;;;;;;;4983603;28;20232;-84
2021/04/17 00:58:22;;;;;;;10.67;9.20;;;;;;;;;;4995728;28;20246;-83
2021/04/17 01:00:50;;;;;;;10.53;9.43;;;;;;;;;;4986939;28;20219;-84
2021/04/17 01:03:22;;;;;;;11.30;10.00;;;;;;;;;;4995093;28;20228;-88
2021/04/17 01:05:54;;;;;;;10.63;9.53;;;;;;;;;;5002178;28;20228;-87
2021/04/17 01:08:27;;;;;;;10.27;9.13;;;;;;;;;;4987942;28;20232;-83
2021/04/17 01:10:57;;;;;;;10.13;9.10;;;;;;;;;;4981745;28;20231;-84
2021/04/17 01:13:26;;;;;;;10.77;9.67;;;;;;;;;;4979027;28;20248;-81
2021/04/17 01:15:54;;;;;;;11.67;9.93;;;;;;;;;;4984947;28;20228;-86
2021/04/17 01:18:23;;;;;;;10.97;9.67;;;;;;;;;;5006259;28;20224;-88
2021/04/17 01:20:53;;;;;;;11.60;10.40;;;;;;;;;;5003298;28;20229;-85
2021/04/17 01:23:27;;;;;;;11.23;9.77;;;;;;;;;;5003903;28;20239;-83
2021/04/17 01:25:59;;;;;;;10.53;9.43;;;;;;;;;;5017978;28;20231;-85
2021/04/17 01:28:29;;;;;;;11.70;10.50;;;;;;;;;;5000163;28;20226;-85
2021/04/17 01:30:58;;;;;;;12.37;11.07;;;;;;;;;;4997335;28;20228;-84
2021/04/17 01:33:28;;;;;;;12.33;10.57;;;;;;;;;;5001092;28;20235;-85
2021/04/17 01:35:57;;;;;;;12.50;11.20;;;;;;;;;;4993117;28;20235;-84
2021/04/17 01:38:26;;;;;;;12.97;10.97;;;;;;;;;;5000610;28;20605;-82
2021/04/17 01:40:58;;;;;;;12.87;11.03;;;;;;;;;;4987604;28;20229;-82
2021/04/17 01:43:28;;;;;;;12.40;11.03;;;;;;;;;;4978886;28;20233;-82
2021/04/17 01:46:00;;;;;;;11.83;10.60;;;;;;;;;;4981165;28;20237;-84
2021/04/17 01:48:29;;;;;;;12.53;11.23;;;;;;;;;;4978287;28;20224;-82
2021/04/17 01:50:58;;;;;;;12.27;10.90;;;;;;;;;;4989984;28;20232;-82
2021/04/17 01:53:30;;;;;;;12.50;11.20;;;;;;;;;;4978100;28;20232;-83
2021/04/17 01:55:59;;;;;;;12.07;10.80;;;;;;;;;;4979450;28;20236;-86
2021/04/17 01:58:29;;;;;;;12.53;11.23;;;;;;;;;;4977319;28;20223;-86
2021/04/17 02:00:58;;;;;;;12.37;11.07;;;;;;;;;;4975501;28;20230;-85
2021/04/17 02:03:26;;;;;;;12.83;10.53;;;;;;;;;;4973110;28;20727;-85
2021/04/17 02:05:54;;;;;;;13.23;11.20;;;;;;;;;;4979575;28;20227;-83
2021/04/17 02:08:22;;;;;;;13.03;11.57;;;;;;;;;;4973382;28;20227;-83
2021/04/17 02:10:51;;;;;;;15.00;12.40;;;;;;;;;;5000207;28;20234;-85
2021/04/17 02:13:20;;;;;;;13.80;11.90;;;;;;;;;;5003320;28;20242;-85
2021/04/17 02:15:48;;;;;;;14.83;12.03;;;;;;;;;;4996561;28;20242;-85
2021/04/17 02:18:20;;;;;;;13.70;11.93;;;;;;;;;;5002790;28;20244;-84
2021/04/17 02:20:52;;;;;;;13.50;12.03;;;;;;;;;;4988668;28;20228;-84
2021/04/17 02:23:20;;;;;;;13.87;11.90;;;;;;;;;;5002520;28;20227;-83
2021/04/17 02:25:48;;;;;;;13.63;12.07;;;;;;;;;;4990856;28;20214;-83
2021/04/17 02:28:16;;;;;;;15.07;12.47;;;;;;;;;;4987476;28;20348;-89
2021/04/17 02:30:44;;;;;;;15.00;13.13;;;;;;;;;;4988209;28;20262;-83
2021/04/17 02:33:12;;;;;;;14.23;12.17;;;;;;;;;;4991384;28;21561;-86
2021/04/17 02:35:39;;;;;;;14.17;11.47;;;;;;;;;;4993170;28;20224;-82
2021/04/17 02:38:07;;;;;;;14.10;12.53;;;;;;;;;;4997320;28;20234;-86
2021/04/17 02:40:35;;;;;;;14.07;12.57;;;;;;;;;;5008861;28;20239;-83
2021/04/17 02:43:02;;;;;;;14.13;12.53;;;;;;;;;;4980373;28;20229;-85
2021/04/17 02:45:30;;;;;;;16.07;13.17;;;;;;;;;;5000560;28;20242;-86
2021/04/17 02:47:58;;;;;;;14.73;12.83;;;;;;;;;;4991055;28;20230;-82
2021/04/17 02:50:27;;;;;;;15.43;12.90;;;;;;;;;;4976762;28;20722;-82
2021/04/17 02:52:54;;;;;;;13.80;12.37;;;;;;;;;;4977051;28;20224;-83
2021/04/17 02:55:22;;;;;;;15.33;13.73;;;;;;;;;;4975819;28;20226;-87
2021/04/17 02:57:50;;;;;;;17.90;12.97;;;;;;;;;;4983915;28;20241;-85
2021/04/17 03:00:22;;;;;;;15.00;13.00;;;;;;;;;;4992331;28;20230;-87
2021/04/17 03:02:50;;;;;;;16.37;14.13;;;;;;;;;;4991137;28;20230;-82
2021/04/17 03:05:19;;;;;;;14.67;13.00;;;;;;;;;;4997846;28;20237;-83
2021/04/17 03:07:47;;;;;;;15.07;13.47;;;;;;;;;;5003702;28;20233;-87
2021/04/17 03:10:15;;;;;;;15.97;13.77;;;;;;;;;;4993983;28;20619;-84
2021/04/17 03:12:43;;;;;;;15.40;13.40;;;;;;;;;;4987476;28;20234;-83
2021/04/17 03:15:11;;;;;;;16.20;13.77;;;;;;;;;;4983365;28;20227;-85
2021/04/17 03:17:39;;;;;;;15.50;13.20;;;;;;;;;;4978518;28;20226;-86
2021/04/17 03:20:09;;;;;;;16.33;13.27;;;;;;;;;;4974739;28;20620;-87
2021/04/17 03:22:38;;;;;;;18.03;14.70;;;;;;;;;;4970747;28;20864;-86
2021/04/17 03:25:09;;;;;;;15.93;13.33;;;;;;;;;;4994651;28;20231;-84
2021/04/17 03:27:37;;;;;;;17.47;13.43;;;;;;;;;;4983124;28;20238;-86
2021/04/17 03:30:07;;;;;;;16.50;13.10;;;;;;;;;;4979338;28;20239;-85
2021/04/17 03:32:35;;;;;;;17.47;14.00;;;;;;;;;;4977172;28;20234;-82
2021/04/17 03:35:03;;;;;;;16.23;13.07;;;;;;;;;;4980956;28;20811;-86
2021/04/17 03:37:31;;;;;;;14.87;12.70;;;;;;;;;;4977845;28;20240;-83
2021/04/17 03:39:59;;;;;;;17.27;13.60;;;;;;;;;;4997427;28;20235;-85
2021/04/17 03:42:27;;;;;;;17.17;14.33;;;;;;;;;;4968217;28;20660;-82
2021/04/17 03:44:55;;;;;;;17.90;14.23;;;;;;;;;;4977478;28;20601;-83
2021/04/17 03:47:22;;;;;;;18.77;14.47;;;;;;;;;;4994442;28;20231;-83
2021/04/17 03:49:50;;;;;;;16.17;13.87;;;;;;;;;;4991658;28;20232;-86
2021/04/17 03:52:18;;;;;;;16.10;14.27;;;;;;;;;;4994382;28;20232;-84
2021/04/17 03:54:45;;;;;;;18.07;14.00;;;;;;;;;;5013545;28;20246;-85
2021/04/17 03:57:14;;;;;;;17.63;14.63;;;;;;;;;;5005354;28;20239;-85
2021/04/17 03:59:42;;;;;;;19.73;14.70;;;;;;;;;;4996435;28;20255;-87
2021/04/17 04:02:09;;;;;;;18.67;15.00;;;;;;;;;;4988463;28;20694;-87
2021/04/17 04:04:38;;;;;;;20.20;15.63;;;;;;;;;;4988336;28;20247;-82
2021/04/17 04:07:05;;;;;;;19.90;15.87;;;;;;;;;;4976934;28;20223;-82
2021/04/17 04:09:34;;;;;;;20.37;15.07;;;;;;;;;;4981974;28;20243;-84
2021/04/17 04:12:03;;;;;;;19.67;14.87;;;;;;;;;;4981048;28;20229;-88
2021/04/17 04:14:31;;;;;;;19.23;15.07;;;;;;;;;;4972078;28;20639;-87
2021/04/17 04:16:59;;;;;;;22.73;15.67;;;;;;;;;;4980170;28;20236;-84
2021/04/17 04:19:27;;;;;;;19.47;14.77;;;;;;;;;;4978247;28;20247;-84
2021/04/17 04:21:54;;;;;;;19.17;15.57;;;;;;;;;;4973935;28;20237;-84
2021/04/17 04:24:22;;;;;;;19.70;15.03;;;;;;;;;;4974245;28;20224;-84
2021/04/17 04:26:50;;;;;;;21.43;15.73;;;;;;;;;;4970256;28;20221;-85
2021/04/17 04:29:18;;;;;;;22.87;15.57;;;;;;;;;;4976843;28;20245;-85
2021/04/17 04:31:46;;;;;;;21.83;16.43;;;;;;;;;;4975900;28;20240;-84
2021/04/17 04:34:14;;;;;;;19.60;15.60;;;;;;;;;;5003593;28;20239;-83
2021/04/17 04:36:42;;;;;;;20.57;16.13;;;;;;;;;;4986855;28;20221;-82
2021/04/17 04:39:10;;;;;;;21.37;16.13;;;;;;;;;;4972816;28;20229;-81
2021/04/17 04:41:38;;;;;;;18.50;14.80;;;;;;;;;;4975196;28;20235;-84
2021/04/17 04:44:06;;;;;;;21.87;16.27;;;;;;;;;;5000303;28;20233;-86
2021/04/17 04:46:34;;;;;;;19.77;15.57;;;;;;;;;;4978387;28;20842;-87
2021/04/17 04:49:03;;;;;;;21.20;16.67;;;;;;;;;;4999111;28;20233;-86
2021/04/17 04:51:31;;;;;;;22.03;16.60;;;;;;;;;;5001768;28;20225;-88
2021/04/17 04:54:00;;;;;;;22.13;16.47;;;;;;;;;;4991402;28;20236;-87
2021/04/17 04:56:27;;;;;;;21.40;17.13;;;;;;;;;;4994072;28;20242;-83
2021/04/17 04:58:55;;;;;;;20.57;16.60;;;;;;;;;;4977757;28;20618;-88
2021/04/17 05:01:23;;;;;;;20.83;17.10;;;;;;;;;;4972610;28;20236;-82
2021/04/17 05:03:51;;;;;;;22.03;17.17;;;;;;;;;;4970489;28;20225;-82
2021/04/17 05:06:19;;;;;;;24.03;18.37;;;;;;;;;;4966538;28;20242;-84
2021/04/17 05:08:47;;;;;;;22.93;18.23;;;;;;;;;;4971306;28;20248;-81
2021/04/17 05:11:14;;;;;;;25.03;17.63;;;;;;;;;;4988705;28;20232;-85
2021/04/17 05:13:42;;;;;;;25.37;18.73;;;;;;;;;;4986162;28;20598;-81
2021/04/17 05:16:09;;;;;;;22.70;17.77;;;;;;;;;;4987725;28;20312;-83
2021/04/17 05:18:37;;;;;;;23.63;18.10;;;;;;;;;;4988637;28;20688;-80
2021/04/17 05:21:05;;;;;;;25.30;19.60;;;;;;;;;;4980113;28;20228;-82
2021/04/17 05:23:33;;;;;;;25.87;18.30;;;;;;;;;;4986311;28;20605;-82
2021/04/17 05:26:01;;;;;;;24.60;18.80;;;;;;;;;;5001170;28;20235;-83
2021/04/17 05:28:28;;;;;;;24.47;19.27;;;;;;;;;;4990833;28;20225;-82
2021/04/17 05:30:56;;;;;;;21.90;17.87;;;;;;;;;;5006338;28;20236;-91
2021/04/17 05:33:24;;;;;;;25.57;19.03;;;;;;;;;;4988822;28;20230;-91
2021/04/17 05:35:52;;;;;;;28.40;19.53;;;;;;;;;;4996368;28;20305;-91
2021/04/17 05:38:20;;;;;;;29.20;20.17;;;;;;;;;;4984809;28;20224;-87
2021/04/17 05:40:48;;;;;;;24.87;19.80;;;;;;;;;;4987208;28;21010;-83
2021/04/17 05:43:16;;;;;;;26.00;19.10;;;;;;;;;;4987994;28;20233;-87
2021/04/17 05:45:43;;;;;;;25.90;20.00;;;;;;;;;;4990462;28;20226;-85
2021/04/17 05:48:11;;;;;;;27.30;19.43;;;;;;;;;;4980030;28;20228;-83
2021/04/17 05:50:38;;;;;;;26.33;19.57;;;;;;;;;;4969902;28;20618;-86
2021/04/17 05:53:06;;;;;;;26.40;20.17;;;;;;;;;;4983901;28;20236;-83
2021/04/17 05:55:34;;;;;;;27.67;20.53;;;;;;;;;;4982079;28;20229;-83
2021/04/17 05:58:02;;;;;;;25.43;19.67;;;;;;;;;;4986936;28;20240;-83
2021/04/17 06:00:30;;;;;;;24.40;19.43;;;;;;;;;;4986416;28;20236;-83
2021/04/17 06:02:57;;;;;;;25.13;19.20;;;;;;;;;;4987838;28;20221;-84
2021/04/17 06:05:25;;;;;;;26.07;19.10;;;;;;;;;;4998316;28;20236;-87
2021/04/17 06:07:52;;;;;;;26.13;19.43;;;;;;;;;;4981157;28;20426;-87
2021/04/17 06:10:20;;;;;;;26.07;19.33;;;;;;;;;;4967190;28;20229;-85
2021/04/17 06:12:48;;;;;;;24.70;19.67;;;;;;;;;;4982888;28;20217;-82
2021/04/17 06:15:16;;;;;;;25.17;19.00;;;;;;;;;;4989264;28;20240;-85
2021/04/17 06:17:44;;;;;;;25.37;18.20;;;;;;;;;;4976725;28;20217;-85
2021/04/17 06:20:12;;;;;;;23.70;19.70;;;;;;;;;;4984389;28;20305;-89
2021/04/17 06:22:40;;;;;;;25.53;19.90;;;;;;;;;;4983833;28;20237;-85
2021/04/17 06:25:09;;;;;;;26.57;20.13;;;;;;;;;;4966622;28;20234;-83
2021/04/17 06:27:37;;;;;;;26.70;19.57;;;;;;;;;;4970877;28;20242;-84
2021/04/17 06:30:06;;;;;;;25.43;18.90;;;;;;;;;;4968121;28;20233;-81
2021/04/17 06:32:34;;;;;;;26.17;19.57;;;;;;;;;;4965701;28;20237;-89
2021/04/17 06:35:02;;;;;;;25.57;19.90;;;;;;;;;;4971379;28;20232;-81
2021/04/17 06:37:30;;;;;;;25.90;19.47;;;;;;;;;;4974166;28;20424;-84
2021/04/17 06:39:57;;;;;;;28.73;20.93;;;;;;;;;;4979552;28;20635;-82
2021/04/17 06:42:26;;;;;;;26.20;20.93;;;;;;;;;;4978694;28;20235;-88
2021/04/17 06:44:55;;;;;;;25.67;18.83;;;;;;;;;;4989333;28;20609;-84
2021/04/17 06:47:22;;;;;;;26.50;19.83;;;;;;;;;;4986827;28;20233;-82
2021/04/17 06:49:51;;;;;;;27.20;21.10;;;;;;;;;;4984959;28;20232;-85
2021/04/17 06:52:20;;;;;;;28.20;21.40;;;;;;;;;;4962023;28;20246;-82
2021/04/17 06:54:48;;;;;;;26.63;20.00;;;;;;;;;;4989593;28;20228;-83
2021/04/17 06:57:16;;;;;;;30.57;20.97;;;;;;;;;;4977720;28;20241;-85
2021/04/17 06:59:44;;;;;;;25.30;20.50;;;;;;;;;;4974888;28;20226;-83
2021/04/17 07:02:13;;;;;;;27.10;21.57;;;;;;;;;;4942022;28;20230;-82
2021/04/17 07:04:42;;;;;;;23.77;19.37;;;;;;;;;;4968911;28;20223;-86
2021/04/17 07:07:11;;;;;;;24.70;20.70;;;;;;;;;;4953889;28;20241;-84
2021/04/17 07:09:39;;;;;;;25.43;20.40;;;;;;;;;;4965343;28;20246;-82
2021/04/17 07:12:08;;;;;;;27.30;20.80;;;;;;;;;;4963423;28;20222;-87
2021/04/17 07:14:43;;;;;;;25.20;20.67;;;;;;;;;;4997715;28;20222;-86
2021/04/17 07:17:11;;;;;;;24.90;19.57;;;;;;;;;;4968009;28;20234;-85
2021/04/17 07:20:00;;;;;;;24.80;20.63;;;;;;;;;;4963451;28;20958;-86
2021/04/17 07:22:30;;;;;;;25.10;19.93;;;;;;;;;;4977421;28;20240;-84
2021/04/17 07:25:15;;;;;;;24.47;19.07;;;;;;;;;;4980018;28;20226;-86
2021/04/17 07:27:44;;;;;;;23.33;16.20;;;;;;;;;;4969390;28;20240;-86
2021/04/17 07:30:33;;;;;;;25.63;15.60;;;;;;;;;;4985826;28;20325;-83
2021/04/17 07:33:10;;;;;;;21.13;15.03;;;;;;;;;;5005242;28;20233;-88
2021/04/17 07:35:41;;;;;;;22.63;15.20;;;;;;;;;;4998466;28;20229;-85
2021/04/17 07:38:15;;;;;;;20.57;13.90;;;;;;;;;;4968226;28;20693;-84
2021/04/17 07:40:44;;;;;;;20.53;14.80;;;;;;;;;;4976546;28;20225;-82
2021/04/17 07:43:17;;;;;;;20.77;14.20;;;;;;;;;;4994851;28;20599;-81
2021/04/17 07:45:45;;;;;;;22.87;14.90;;;;;;;;;;4987500;28;20222;-86
2021/04/17 07:48:21;;;;;;;23.93;16.67;;;;;;;;;;4957111;28;20218;-86
2021/04/17 07:50:49;;;;;;;22.53;15.40;;;;;;;;;;4953550;28;20644;-84
2021/04/17 07:53:30;;;;;;;23.23;16.20;;;;;;;;;;4952659;28;20245;-85
2021/04/17 07:56:25;;;;;;;23.53;15.03;;;;;;;;;;4967744;28;20230;-86
2021/04/17 07:58:54;;;;;;;22.70;14.70;;;;;;;;;;4971172;28;20225;-83
2021/04/17 08:01:23;;;;;;;22.00;14.30;;;;;;;;;;4982114;28;20222;-87
2021/04/17 08:04:07;;;;;;;18.20;13.67;;;;;;;;;;4980917;28;20260;-86
2021/04/17 08:06:34;;;;;;;22.60;15.27;;;;;;;;;;4959070;28;20666;-83
2021/04/17 08:09:04;;;;;;;23.20;15.93;;;;;;;;;;4978885;28;20706;-85
2021/04/17 08:11:34;;;;;;;20.93;15.83;;;;;;;;;;4968138;28;20235;-84
2021/04/17 08:14:24;;;;;;;21.33;16.07;;;;;;;;;;4944181;28;20219;-87
2021/04/17 08:16:53;;;;;;;22.90;15.60;;;;;;;;;;4959791;28;20232;-85
2021/04/17 08:19:29;;;;;;;22.27;16.67;;;;;;;;;;4954421;28;20232;-81
2021/04/17 08:21:57;;;;;;;21.57;16.30;;;;;;;;;;4953514;28;20233;-82
2021/04/17 08:24:27;;;;;;;21.17;15.87;;;;;;;;;;4977091;28;20224;-84
2021/04/17 08:26:56;;;;;;;19.00;15.70;;;;;;;;;;4988478;28;20228;-81
2021/04/17 08:29:45;;;;;;;19.57;15.20;;;;;;;;;;4982024;28;20240;-81
2021/04/17 08:32:32;;;;;;;19.20;13.97;;;;;;;;;;4989057;28;20699;-82
2021/04/17 08:35:06;;;;;;;19.87;15.03;;;;;;;;;;4987909;28;20737;-81
2021/04/17 08:37:34;;;;;;;20.13;15.30;;;;;;;;;;4996515;28;20227;-83
2021/04/17 08:40:04;;;;;;;20.43;15.23;;;;;;;;;;4999064;28;20229;-85
2021/04/17 08:42:40;;;;;;;20.83;16.17;;;;;;;;;;4970203;28;20241;-82
2021/04/17 08:45:13;;;;;;;19.87;15.63;;;;;;;;;;4985803;28;20597;-81
2021/04/17 08:47:50;;;;;;;18.80;15.23;;;;;;;;;;4950660;28;20217;-83
2021/04/17 08:50:23;;;;;;;19.77;15.23;;;;;;;;;;4956741;28;20226;-85
2021/04/17 08:52:56;;;;;;;19.90;15.63;;;;;;;;;;4952006;28;20226;-83
2021/04/17 08:55:48;;;;;;;20.37;16.17;;;;;;;;;;4952281;28;20229;-81
2021/04/17 08:58:17;;;;;;;21.00;16.17;;;;;;;;;;4968093;28;20246;-82
2021/04/17 09:01:07;;;;;;;19.47;16.27;;;;;;;;;;4988867;28;20745;-84
2021/04/17 09:03:36;;;;;;;19.80;15.10;;;;;;;;;;4990915;28;20221;-83
2021/04/17 09:06:05;;;;;;;17.50;14.50;;;;;;;;;;4952543;28;20218;-82
2021/04/17 09:08:37;;;;;;;17.17;13.97;;;;;;;;;;4967317;28;20233;-84
2021/04/17 09:11:38;;;;;;;20.20;16.40;;;;;;;;;;4969812;28;20233;-86
2021/04/17 09:14:49;;;;;;;19.07;14.13;;;;;;;;;;4960492;28;20237;-82
2021/04/17 09:17:39;;;;;;;19.23;15.77;;;;;;;;;;4969595;28;20234;-82
2021/04/17 09:20:08;;;;;;;19.13;15.10;;;;;;;;;;4962102;28;20291;-81
2021/04/17 09:22:44;;;;;;;18.03;15.80;;;;;;;;;;4990272;28;20229;-83
2021/04/17 09:25:13;;;;;;;18.60;15.20;;;;;;;;;;5003848;28;20225;-80
2021/04/17 09:27:54;;;;;;;19.33;15.00;;;;;;;;;;4984961;28;20228;-83
2021/04/17 09:30:23;;;;;;;18.30;15.23;;;;;;;;;;4969985;28;20229;-82
2021/04/17 09:32:57;;;;;;;18.43;15.33;;;;;;;;;;4990468;28;20236;-82
2021/04/17 09:35:27;;;;;;;19.07;14.73;;;;;;;;;;4988304;28;20229;-86
2021/04/17 09:38:08;;;;;;;18.43;15.13;;;;;;;;;;4961959;28;20608;-83
2021/04/17 09:40:40;;;;;;;18.33;14.87;;;;;;;;;;4980746;28;20241;-83
2021/04/17 09:43:19;;;;;;;17.27;15.33;;;;;;;;;;4967989;28;20245;-82
2021/04/17 09:45:49;;;;;;;16.90;14.47;;;;;;;;;;4963739;28;20233;-81
2021/04/17 09:48:19;;;;;;;18.07;15.33;;;;;;;;;;4972586;28;20248;-82
2021/04/17 09:50:47;;;;;;;18.40;15.87;;;;;;;;;;4983666;28;20248;-85
2021/04/17 09:53:17;;;;;;;16.93;14.50;;;;;;;;;;4972153;28;20225;-82
2021/04/17 09:55:50;;;;;;;18.57;15.53;;;;;;;;;;4993191;28;20240;-82
2021/04/17 09:58:25;;;;;;;17.60;14.40;;;;;;;;;;4985777;28;20609;-83
2021/04/17 10:00:55;;;;;;;18.63;16.13;;;;;;;;;;4983407;28;20228;-83
2021/04/17 10:03:27;;;;;;;16.90;14.97;;;;;;;;;;4982109;28;20240;-82
2021/04/17 10:06:26;;;;;;;16.37;14.47;;;;;;;;;;4985164;28;20702;-83
2021/04/17 10:08:54;;;;;;;16.63;14.70;;;;;;;;;;4962683;28;20232;-83
2021/04/17 10:11:24;;;;;;;17.87;14.37;;;;;;;;;;4989308;28;20214;-81
2021/04/17 10:13:52;;;;;;;18.23;15.73;;;;;;;;;;4966535;28;20740;-81
2021/04/17 10:16:29;;;;;;;17.57;15.07;;;;;;;;;;4954203;28;20241;-86
2021/04/17 10:18:57;;;;;;;16.90;15.10;;;;;;;;;;4965848;28;20241;-85
2021/04/17 10:21:27;;;;;;;18.07;14.37;;;;;;;;;;4968059;28;20226;-80
2021/04/17 10:24:23;;;;;;;15.17;13.57;;;;;;;;;;4965199;28;20928;-83
2021/04/17 10:26:54;;;;;;;17.37;14.07;;;;;;;;;;4981610;28;20222;-83
2021/04/17 10:29:32;;;;;;;16.03;14.27;;;;;;;;;;4980470;28;20587;-85
2021/04/17 10:32:01;;;;;;;17.00;14.03;;;;;;;;;;4995564;28;21540;-81
2021/04/17 10:34:29;;;;;;;16.40;13.73;;;;;;;;;;4980436;28;20237;-82
2021/04/17 10:36:59;;;;;;;16.07;13.50;;;;;;;;;;4990912;28;20454;-85
2021/04/17 10:39:27;;;;;;;16.03;13.50;;;;;;;;;;4984714;28;20233;-83
2021/04/17 10:42:00;;;;;;;16.10;14.40;;;;;;;;;;4965438;28;20240;-84
2021/04/17 10:44:28;;;;;;;15.87;14.27;;;;;;;;;;4955348;28;20244;-83
2021/04/17 10:46:57;;;;;;;15.50;13.90;;;;;;;;;;4951460;28;21484;-83
2021/04/17 10:49:31;;;;;;;16.40;14.60;;;;;;;;;;4971623;28;20929;-84
2021/04/17 10:52:00;;;;;;;17.47;15.17;;;;;;;;;;4964633;28;20595;-82
2021/04/17 10:54:27;;;;;;;15.67;14.07;;;;;;;;;;4960172;28;20705;-81
2021/04/17 10:56:57;;;;;;;15.67;13.83;;;;;;;;;;4944713;28;20233;-81
2021/04/17 10:59:25;;;;;;;15.07;13.33;;;;;;;;;;4961771;28;20244;-81
2021/04/17 11:01:54;;;;;;;15.47;13.87;;;;;;;;;;4962206;28;20221;-83
2021/04/17 11:04:22;;;;;;;15.43;13.90;;;;;;;;;;4982840;28;20712;-79
2021/04/17 11:06:50;;;;;;;35.80;28.60;;;;;;;;;;4970201;28;20550;-81
2021/04/17 11:09:22;;;;;;;20.67;18.43;;;;;;;;;;4966593;28;20721;-82
2021/04/17 11:11:53;;;;;;;16.70;15.00;;;;;;;;;;4980008;28;20215;-80
2021/04/17 11:14:23;;;;;;;16.40;14.67;;;;;;;;;;4977847;28;20210;-80
2021/04/17 11:16:52;;;;;;;15.23;13.77;;;;;;;;;;4975217;28;20222;-78
2021/04/17 11:19:27;;;;;;;14.80;13.37;;;;;;;;;;4994944;28;20244;-83
2021/04/17 11:22:09;;;;;;;14.90;13.40;;;;;;;;;;4982543;28;20226;-81
2021/04/17 11:24:38;;;;;;;15.40;13.93;;;;;;;;;;4955403;28;20724;-81
2021/04/17 11:27:06;;;;;;;15.80;14.20;;;;;;;;;;4972933;28;20229;-82
2021/04/17 11:29:34;;;;;;;14.67;13.10;;;;;;;;;;4980730;28;20256;-79
2021/04/17 11:32:01;;;;;;;15.77;14.27;;;;;;;;;;4972795;28;20594;-79
2021/04/17 11:34:29;;;;;;;14.53;13.13;;;;;;;;;;4966936;28;20234;-80
2021/04/17 11:36:57;;;;;;;13.80;12.50;;;;;;;;;;4952585;28;20230;-79
2021/04/17 11:39:26;;;;;;;12.23;11.13;;;;;;;;;;4962865;28;20231;-80
2021/04/17 11:41:53;;;;;;;13.90;12.37;;;;;;;;;;4961706;28;20245;-79
2021/04/17 11:44:21;;;;;;;13.50;12.20;;;;;;;;;;4966467;28;20446;-80
2021/04/17 11:46:49;;;;;;;12.57;11.37;;;;;;;;;;4970445;28;20735;-80
2021/04/17 11:49:16;;;;;;;13.90;12.53;;;;;;;;;;4942553;28;20249;-77
2021/04/17 11:51:44;;;;;;;12.60;11.37;;;;;;;;;;4969030;28;20226;-78
2021/04/17 11:54:11;;;;;;;14.50;13.00;;;;;;;;;;4992259;28;20226;-80
2021/04/17 11:56:40;;;;;;;15.53;14.03;;;;;;;;;;4991736;28;20225;-78
2021/04/17 11:59:07;;;;;;;14.57;13.20;;;;;;;;;;4974575;28;20244;-80
2021/04/17 12:01:35;;;;;;;14.17;12.87;;;;;;;;;;4991489;28;20261;-79
2021/04/17 12:04:04;;;;;;;14.10;12.87;;;;;;;;;;4989516;28;20225;-82
2021/04/17 12:06:31;;;;;;;13.87;12.50;;;;;;;;;;4990254;28;20595;-78
2021/04/17 12:09:00;;;;;;;14.00;12.70;;;;;;;;;;4988609;28;20239;-80
2021/04/17 12:11:28;;;;;;;15.60;13.13;;;;;;;;;;4982468;28;20237;-80
2021/04/17 12:13:56;;;;;;;13.50;12.20;;;;;;;;;;4989710;28;20220;-79
2021/04/17 12:16:24;;;;;;;13.00;11.67;;;;;;;;;;4965865;28;20230;-79
2021/04/17 12:18:52;;;;;;;13.17;11.87;;;;;;;;;;4950161;28;20233;-81
2021/04/17 12:21:20;;;;;;;14.10;12.70;;;;;;;;;;4946518;28;20246;-77
2021/04/17 12:23:47;;;;;;;14.17;12.50;;;;;;;;;;4969361;28;20244;-76
2021/04/17 12:26:15;;;;;;;13.20;11.90;;;;;;;;;;4999312;28;20233;-79
2021/04/17 12:28:42;;;;;;;13.40;12.00;;;;;;;;;;4969092;28;20253;-76
2021/04/17 12:31:11;;;;;;;12.13;10.93;;;;;;;;;;4997246;28;20233;-77
2021/04/17 12:33:38;;;;;;;12.90;11.60;;;;;;;;;;4951857;28;20227;-77
2021/04/17 12:36:09;;;;;;;13.17;11.50;;;;;;;;;;4985754;28;20232;-77
2021/04/17 12:38:37;;;;;;;11.07;9.90;;;;;;;;;;4972125;28;20237;-76
2021/04/17 12:41:04;;;;;;;11.13;9.90;;;;;;;;;;4981323;28;20226;-77
2021/04/17 12:43:32;;;;;;;11.50;10.30;;;;;;;;;;4988385;28;20229;-76
2021/04/17 12:46:00;;;;;;;10.50;9.40;;;;;;;;;;4984933;28;20221;-76
2021/04/17 12:48:29;;;;;;;11.30;10.10;;;;;;;;;;4988235;28;20697;-77
2021/04/17 12:50:57;;;;;;;10.43;9.17;;;;;;;;;;4985836;28;20228;-77
2021/04/17 12:53:25;;;;;;;13.77;11.03;;;;;;;;;;4975641;28;20226;-79
2021/04/17 12:55:53;;;;;;;10.17;9.07;;;;;;;;;;4987853;28;20219;-78
2021/04/17 12:58:21;;;;;;;10.50;9.37;;;;;;;;;;4990099;28;20218;-81
2021/04/17 13:00:49;;;;;;;10.23;9.10;;;;;;;;;;5000248;28;20213;-78
2021/04/17 13:03:17;;;;;;;16.27;14.03;;;;;;;;;;4987473;28;20205;-78
2021/04/17 13:05:46;;;;;;;14.67;13.10;;;;;;;;;;4982757;28;20234;-76
2021/04/17 13:08:13;;;;;;;11.57;10.37;;;;;;;;;;4956144;28;20642;-78
2021/04/17 13:10:41;;;;;;;11.20;10.00;;;;;;;;;;4942051;28;20241;-76
2021/04/17 13:13:09;;;;;;;12.23;10.67;;;;;;;;;;4953267;28;20246;-76
2021/04/17 13:15:37;;;;;;;10.60;9.27;;;;;;;;;;4963499;28;20222;-76
2021/04/17 13:18:05;;;;;;;12.10;10.03;;;;;;;;;;4964226;28;20225;-76
2021/04/17 13:20:33;;;;;;;10.33;9.27;;;;;;;;;;4964281;28;20257;-76
2021/04/17 13:23:01;;;;;;;11.13;9.97;;;;;;;;;;4989054;28;20232;-76
2021/04/17 13:25:29;;;;;;;10.43;9.37;;;;;;;;;;4967898;28;20250;-76
2021/04/17 13:27:56;;;;;;;10.00;9.00;;;;;;;;;;4982133;28;20213;-76
2021/04/17 13:30:24;;;;;;;10.10;9.00;;;;;;;;;;4982859;28;20712;-76
2021/04/17 13:32:52;;;;;;;9.37;8.30;;;;;;;;;;4978924;28;20232;-76
2021/04/17 13:35:20;;;;;;;9.93;8.10;;;;;;;;;;4972931;28;20221;-76
2021/04/17 13:37:47;;;;;;;8.67;7.77;;;;;;;;;;4988959;28;20244;-76
2021/04/17 13:40:16;;;;;;;9.20;8.20;;;;;;;;;;4958197;28;20442;-76
2021/04/17 13:42:44;;;;;;;9.97;8.83;;;;;;;;;;4981610;28;20720;-76
2021/04/17 13:45:13;;;;;;;9.43;8.47;;;;;;;;;;4970734;28;20713;-76
2021/04/17 13:47:40;;;;;;;10.07;9.03;;;;;;;;;;4947399;28;20236;-76
2021/04/17 13:50:09;;;;;;;8.80;7.90;;;;;;;;;;4954553;28;20229;-76
2021/04/17 13:52:41;;;;;;;8.60;7.73;;;;;;;;;;4981251;28;20240;-76
2021/04/17 13:55:10;;;;;;;9.10;8.17;;;;;;;;;;4992180;28;20227;-76
2021/04/17 13:57:38;;;;;;;8.60;7.70;;;;;;;;;;4972246;28;20226;-76
2021/04/17 14:00:08;;;;;;;12.33;10.27;;;;;;;;;;4963069;28;20223;-76
2021/04/17 14:02:44;;;;;;;8.73;7.83;;;;;;;;;;4965837;28;20245;-77
2021/04/17 14:05:13;;;;;;;9.80;8.80;;;;;;;;;;4950930;28;20222;-77
2021/04/17 14:07:40;;;;;;;8.60;7.63;;;;;;;;;;4965388;28;20229;-77
2021/04/17 14:10:09;;;;;;;9.50;8.60;;;;;;;;;;4982973;28;20228;-79
2021/04/17 14:12:37;;;;;;;8.47;7.67;;;;;;;;;;4989255;28;20606;-76
2021/04/17 14:15:07;;;;;;;11.80;9.20;;;;;;;;;;4958106;28;20689;-76
2021/04/17 14:17:34;;;;;;;8.10;7.40;;;;;;;;;;4967876;28;20237;-76
2021/04/17 14:20:03;;;;;;;9.07;8.03;;;;;;;;;;4968481;28;20222;-77
2021/04/17 14:22:31;;;;;;;7.47;6.77;;;;;;;;;;4981134;28;20229;-76
2021/04/17 14:25:07;;;;;;;7.37;6.60;;;;;;;;;;4965831;28;20225;-76
2021/04/17 14:27:34;;;;;;;8.00;7.20;;;;;;;;;;4971493;28;20233;-76
2021/04/17 14:30:04;;;;;;;9.07;7.30;;;;;;;;;;4970937;28;20805;-76
2021/04/17 14:32:37;;;;;;;6.83;6.23;;;;;;;;;;4987962;28;20657;-77
2021/04/17 14:35:09;;;;;;;7.53;6.80;;;;;;;;;;4983598;28;20230;-78
2021/04/17 14:37:37;;;;;;;7.47;6.83;;;;;;;;;;4982780;28;20715;-75